Elmora, New Jersey
Current Conditions -  °F | °C
As of 8:55 AM on Thursday 23 Oct 2014 (Local Time) from KLDJ Reporting Station
Moderate Rain Moderate Rain  
Wind Chill: 55°   Ceiling: 3400
Heat Index: 55°   Visibility: 7mi
Dew Point: 52°   Wind: 12mph
Humidity: 88%   Direction: 360°N
Pressure: 29.73"   Gusts: 17mph
Location:  40.6531°N, 74.2169°W
Report Text: KLDJ 231255Z AUTO 36010G15KT 7SM RA BKN034 OVC042 13/11 A2973 RMK AO2 P0006 T01300110
Loading
Personal Weather Stations






























Interactive Weather Map
Tropical Storm Tracking
New forecast layout! Learn more

10-Day Weather Forecast

Advertisements
Track Severe Weather on mobile